sensor_id;sensor_type;location;lat;lon;timestamp;pressure;altitude;pressure_sealevel;temperature;humidity
34235;BME280;20500;49.856;20.290;2023-02-19T00:02:54;98602.96;;;7.18;77.45
34235;BME280;20500;49.856;20.290;2023-02-19T00:06:04;98609.63;;;7.17;77.45
34235;BME280;20500;49.856;20.290;2023-02-19T00:09:12;98612.95;;;7.16;77.44
34235;BME280;20500;49.856;20.290;2023-02-19T00:12:18;98617.34;;;7.17;77.61
34235;BME280;20500;49.856;20.290;2023-02-19T00:15:24;98615.92;;;7.19;77.56
34235;BME280;20500;49.856;20.290;2023-02-19T00:18:29;98614.77;;;7.18;77.59
34235;BME280;20500;49.856;20.290;2023-02-19T00:21:35;98611.94;;;7.15;77.82
34235;BME280;20500;49.856;20.290;2023-02-19T00:24:41;98612.52;;;7.14;77.71
34235;BME280;20500;49.856;20.290;2023-02-19T00:27:48;98611.27;;;7.10;77.69
34235;BME280;20500;49.856;20.290;2023-02-19T00:30:52;98609.06;;;7.09;77.85
34235;BME280;20500;49.856;20.290;2023-02-19T00:34:02;98604.65;;;7.06;77.89
34235;BME280;20500;49.856;20.290;2023-02-19T00:37:08;98605.55;;;7.08;77.99
34235;BME280;20500;49.856;20.290;2023-02-19T00:40:15;98605.70;;;7.09;78.08
34235;BME280;20500;49.856;20.290;2023-02-19T00:43:21;98609.00;;;7.13;78.03
34235;BME280;20500;49.856;20.290;2023-02-19T00:46:30;98620.77;;;7.11;77.86
34235;BME280;20500;49.856;20.290;2023-02-19T00:49:36;98631.13;;;7.08;77.91
34235;BME280;20500;49.856;20.290;2023-02-19T00:52:42;98636.68;;;7.07;78.01
34235;BME280;20500;49.856;20.290;2023-02-19T00:55:47;98632.08;;;7.06;78.09
34235;BME280;20500;49.856;20.290;2023-02-19T00:58:53;98620.37;;;7.05;78.08
34235;BME280;20500;49.856;20.290;2023-02-19T01:01:58;98605.40;;;7.03;78.17
34235;BME280;20500;49.856;20.290;2023-02-19T01:05:04;98615.44;;;7.02;78.30
34235;BME280;20500;49.856;20.290;2023-02-19T01:08:11;98616.98;;;7.01;78.20
34235;BME280;20500;49.856;20.290;2023-02-19T01:11:15;98615.44;;;6.99;78.28
34235;BME280;20500;49.856;20.290;2023-02-19T01:14:22;98621.39;;;6.94;78.26
34235;BME280;20500;49.856;20.290;2023-02-19T01:17:26;98617.61;;;6.91;78.29
34235;BME280;20500;49.856;20.290;2023-02-19T01:20:33;98614.56;;;6.87;78.39
34235;BME280;20500;49.856;20.290;2023-02-19T01:23:37;98606.32;;;6.85;78.47
34235;BME280;20500;49.856;20.290;2023-02-19T01:26:44;98605.67;;;6.82;78.43
34235;BME280;20500;49.856;20.290;2023-02-19T01:29:50;98605.38;;;6.80;78.47
34235;BME280;20500;49.856;20.290;2023-02-19T01:32:56;98600.43;;;6.78;78.44
34235;BME280;20500;49.856;20.290;2023-02-19T01:36:05;98600.33;;;6.77;78.51
34235;BME280;20500;49.856;20.290;2023-02-19T01:39:12;98599.11;;;6.76;78.62
34235;BME280;20500;49.856;20.290;2023-02-19T01:42:16;98593.67;;;6.75;78.62
34235;BME280;20500;49.856;20.290;2023-02-19T01:45:26;98594.79;;;6.72;78.53
34235;BME280;20500;49.856;20.290;2023-02-19T01:48:35;98595.27;;;6.69;78.48
34235;BME280;20500;49.856;20.290;2023-02-19T01:51:45;98586.27;;;6.67;78.53
34235;BME280;20500;49.856;20.290;2023-02-19T01:54:53;98581.73;;;6.67;78.53
34235;BME280;20500;49.856;20.290;2023-02-19T01:58:00;98584.40;;;6.68;78.64
34235;BME280;20500;49.856;20.290;2023-02-19T02:01:08;98587.36;;;6.72;78.79
34235;BME280;20500;49.856;20.290;2023-02-19T02:04:15;98586.04;;;6.74;78.78
34235;BME280;20500;49.856;20.290;2023-02-19T02:07:23;98582.05;;;6.73;78.70
34235;BME280;20500;49.856;20.290;2023-02-19T02:10:46;98579.40;;;6.71;78.78
34235;BME280;20500;49.856;20.290;2023-02-19T02:13:53;98577.95;;;6.71;78.85
34235;BME280;20500;49.856;20.290;2023-02-19T02:17:06;98570.85;;;6.71;78.88
34235;BME280;20500;49.856;20.290;2023-02-19T02:20:29;98564.70;;;6.68;78.88
34235;BME280;20500;49.856;20.290;2023-02-19T02:23:45;98556.25;;;6.65;78.96
34235;BME280;20500;49.856;20.290;2023-02-19T02:27:05;98549.02;;;6.63;79.11
34235;BME280;20500;49.856;20.290;2023-02-19T02:30:32;98544.58;;;6.61;79.08
34235;BME280;20500;49.856;20.290;2023-02-19T02:33:43;98545.49;;;6.63;79.14
34235;BME280;20500;49.856;20.290;2023-02-19T02:36:54;98539.52;;;6.61;79.25
34235;BME280;20500;49.856;20.290;2023-02-19T02:40:02;98542.69;;;6.60;79.22
34235;BME280;20500;49.856;20.290;2023-02-19T02:43:09;98537.08;;;6.59;79.18
34235;BME280;20500;49.856;20.290;2023-02-19T02:46:20;98541.30;;;6.58;79.24
34235;BME280;20500;49.856;20.290;2023-02-19T02:49:29;98541.81;;;6.58;79.38
34235;BME280;20500;49.856;20.290;2023-02-19T02:52:37;98540.70;;;6.58;79.30
34235;BME280;20500;49.856;20.290;2023-02-19T02:56:04;98536.34;;;6.59;79.48
34235;BME280;20500;49.856;20.290;2023-02-19T02:59:13;98540.05;;;6.58;79.47
34235;BME280;20500;49.856;20.290;2023-02-19T03:02:23;98536.50;;;6.56;79.49
34235;BME280;20500;49.856;20.290;2023-02-19T03:05:31;98537.32;;;6.55;79.55
34235;BME280;20500;49.856;20.290;2023-02-19T03:09:10;98537.36;;;6.51;79.66
34235;BME280;20500;49.856;20.290;2023-02-19T03:12:19;98537.77;;;6.50;79.71
34235;BME280;20500;49.856;20.290;2023-02-19T03:15:46;98535.57;;;6.48;79.72
34235;BME280;20500;49.856;20.290;2023-02-19T03:19:14;98524.21;;;6.47;79.70
34235;BME280;20500;49.856;20.290;2023-02-19T03:22:28;98519.07;;;6.44;79.69
34235;BME280;20500;49.856;20.290;2023-02-19T03:25:37;98513.94;;;6.43;79.88
34235;BME280;20500;49.856;20.290;2023-02-19T03:29:02;98506.47;;;6.45;79.98
34235;BME280;20500;49.856;20.290;2023-02-19T03:32:28;98503.99;;;6.50;80.08
34235;BME280;20500;49.856;20.290;2023-02-19T03:35:39;98502.31;;;6.52;80.18
34235;BME280;20500;49.856;20.290;2023-02-19T03:38:50;98497.44;;;6.54;80.18
34235;BME280;20500;49.856;20.290;2023-02-19T03:42:04;98495.18;;;6.53;80.21
34235;BME280;20500;49.856;20.290;2023-02-19T03:45:24;98496.15;;;6.54;80.19
34235;BME280;20500;49.856;20.290;2023-02-19T03:48:34;98497.03;;;6.56;80.26
34235;BME280;20500;49.856;20.290;2023-02-19T03:51:44;98494.89;;;6.59;80.28
34235;BME280;20500;49.856;20.290;2023-02-19T03:54:53;98494.63;;;6.58;80.17
34235;BME280;20500;49.856;20.290;2023-02-19T03:58:06;98488.20;;;6.57;80.43
34235;BME280;20500;49.856;20.290;2023-02-19T04:01:18;98482.58;;;6.59;80.32
34235;BME280;20500;49.856;20.290;2023-02-19T04:04:30;98482.39;;;6.58;80.53
34235;BME280;20500;49.856;20.290;2023-02-19T04:07:41;98480.38;;;6.56;80.41
34235;BME280;20500;49.856;20.290;2023-02-19T04:10:51;98476.91;;;6.54;80.54
34235;BME280;20500;49.856;20.290;2023-02-19T04:14:02;98474.69;;;6.52;80.66
34235;BME280;20500;49.856;20.290;2023-02-19T04:17:25;98476.95;;;6.51;80.59
34235;BME280;20500;49.856;20.290;2023-02-19T04:20:37;98476.98;;;6.51;80.73
34235;BME280;20500;49.856;20.290;2023-02-19T04:23:45;98476.82;;;6.51;80.71
34235;BME280;20500;49.856;20.290;2023-02-19T04:26:53;98474.89;;;6.54;80.87
34235;BME280;20500;49.856;20.290;2023-02-19T04:30:00;98467.41;;;6.58;80.87
34235;BME280;20500;49.856;20.290;2023-02-19T04:33:06;98464.96;;;6.57;80.95
34235;BME280;20500;49.856;20.290;2023-02-19T04:36:12;98462.89;;;6.60;81.11
34235;BME280;20500;49.856;20.290;2023-02-19T04:39:18;98463.33;;;6.64;81.03
34235;BME280;20500;49.856;20.290;2023-02-19T04:42:23;98468.09;;;6.65;80.94
34235;BME280;20500;49.856;20.290;2023-02-19T04:45:29;98462.63;;;6.65;81.18
34235;BME280;20500;49.856;20.290;2023-02-19T04:48:35;98453.11;;;6.65;81.03
34235;BME280;20500;49.856;20.290;2023-02-19T04:51:40;98457.00;;;6.64;81.14
34235;BME280;20500;49.856;20.290;2023-02-19T04:54:46;98459.34;;;6.64;81.17
34235;BME280;20500;49.856;20.290;2023-02-19T04:57:52;98451.66;;;6.62;81.23
34235;BME280;20500;49.856;20.290;2023-02-19T05:00:58;98456.92;;;6.60;81.32
34235;BME280;20500;49.856;20.290;2023-02-19T05:04:05;98458.05;;;6.61;81.37
34235;BME280;20500;49.856;20.290;2023-02-19T05:07:11;98453.64;;;6.60;81.37
34235;BME280;20500;49.856;20.290;2023-02-19T05:10:18;98454.79;;;6.59;81.39
34235;BME280;20500;49.856;20.290;2023-02-19T05:13:24;98452.95;;;6.55;81.39
34235;BME280;20500;49.856;20.290;2023-02-19T05:16:29;98449.61;;;6.53;81.42
34235;BME280;20500;49.856;20.290;2023-02-19T05:19:35;98445.58;;;6.52;81.52
34235;BME280;20500;49.856;20.290;2023-02-19T05:22:41;98440.45;;;6.52;81.60
34235;BME280;20500;49.856;20.290;2023-02-19T05:25:46;98444.52;;;6.55;81.62
34235;BME280;20500;49.856;20.290;2023-02-19T05:28:53;98441.86;;;6.54;81.65
34235;BME280;20500;49.856;20.290;2023-02-19T05:31:59;98445.94;;;6.53;81.70
34235;BME280;20500;49.856;20.290;2023-02-19T05:35:04;98449.71;;;6.57;81.80
34235;BME280;20500;49.856;20.290;2023-02-19T05:38:10;98438.86;;;6.57;81.74
34235;BME280;20500;49.856;20.290;2023-02-19T05:41:18;98429.70;;;6.55;81.84
34235;BME280;20500;49.856;20.290;2023-02-19T05:44:25;98425.09;;;6.57;81.90
34235;BME280;20500;49.856;20.290;2023-02-19T05:47:31;98419.77;;;6.58;81.83
34235;BME280;20500;49.856;20.290;2023-02-19T05:50:38;98411.77;;;6.56;81.88
34235;BME280;20500;49.856;20.290;2023-02-19T05:53:45;98405.05;;;6.56;81.94
34235;BME280;20500;49.856;20.290;2023-02-19T05:56:51;98410.63;;;6.56;81.93
34235;BME280;20500;49.856;20.290;2023-02-19T05:59:58;98408.84;;;6.56;82.07
34235;BME280;20500;49.856;20.290;2023-02-19T06:03:04;98407.61;;;6.61;82.10
34235;BME280;20500;49.856;20.290;2023-02-19T06:06:13;98404.23;;;6.63;82.11
34235;BME280;20500;49.856;20.290;2023-02-19T06:09:20;98402.56;;;6.65;82.10
34235;BME280;20500;49.856;20.290;2023-02-19T06:12:24;98404.56;;;6.64;82.30
34235;BME280;20500;49.856;20.290;2023-02-19T06:15:30;98405.48;;;6.62;82.34
34235;BME280;20500;49.856;20.290;2023-02-19T06:18:37;98412.98;;;6.63;82.28
34235;BME280;20500;49.856;20.290;2023-02-19T06:21:45;98414.19;;;6.65;82.35
34235;BME280;20500;49.856;20.290;2023-02-19T06:24:51;98416.85;;;6.67;82.43
34235;BME280;20500;49.856;20.290;2023-02-19T06:27:58;98404.96;;;6.68;82.40
34235;BME280;20500;49.856;20.290;2023-02-19T06:31:05;98402.77;;;6.68;82.41
34235;BME280;20500;49.856;20.290;2023-02-19T06:34:12;98407.23;;;6.70;82.49
34235;BME280;20500;49.856;20.290;2023-02-19T06:37:16;98403.89;;;6.73;82.66
34235;BME280;20500;49.856;20.290;2023-02-19T06:40:23;98397.42;;;6.76;82.54
34235;BME280;20500;49.856;20.290;2023-02-19T06:43:29;98394.18;;;6.76;82.49
34235;BME280;20500;49.856;20.290;2023-02-19T06:46:36;98379.55;;;6.76;82.48
34235;BME280;20500;49.856;20.290;2023-02-19T06:49:43;98379.66;;;6.70;82.46
34235;BME280;20500;49.856;20.290;2023-02-19T06:52:49;98391.12;;;6.69;82.62
34235;BME280;20500;49.856;20.290;2023-02-19T06:55:57;98394.84;;;6.72;82.62
34235;BME280;20500;49.856;20.290;2023-02-19T06:59:05;98392.35;;;6.74;82.69
34235;BME280;20500;49.856;20.290;2023-02-19T07:02:12;98391.14;;;6.74;82.81
34235;BME280;20500;49.856;20.290;2023-02-19T07:05:19;98391.30;;;6.77;82.82
34235;BME280;20500;49.856;20.290;2023-02-19T07:08:23;98381.89;;;6.77;82.77
34235;BME280;20500;49.856;20.290;2023-02-19T07:11:35;98382.32;;;6.74;82.71
34235;BME280;20500;49.856;20.290;2023-02-19T07:14:41;98376.54;;;6.71;82.82
34235;BME280;20500;49.856;20.290;2023-02-19T07:17:48;98363.25;;;6.70;82.92
34235;BME280;20500;49.856;20.290;2023-02-19T07:20:52;98361.56;;;6.72;83.10
34235;BME280;20500;49.856;20.290;2023-02-19T07:23:58;98364.48;;;6.77;83.19
34235;BME280;20500;49.856;20.290;2023-02-19T07:27:04;98363.90;;;6.80;83.24
34235;BME280;20500;49.856;20.290;2023-02-19T07:30:10;98361.27;;;6.84;83.19
34235;BME280;20500;49.856;20.290;2023-02-19T07:33:16;98363.46;;;6.87;83.18
34235;BME280;20500;49.856;20.290;2023-02-19T07:36:23;98369.27;;;6.92;83.21
34235;BME280;20500;49.856;20.290;2023-02-19T07:39:29;98364.70;;;6.97;83.31
34235;BME280;20500;49.856;20.290;2023-02-19T07:42:35;98362.46;;;6.99;83.17
34235;BME280;20500;49.856;20.290;2023-02-19T07:45:42;98361.47;;;6.94;82.94
34235;BME280;20500;49.856;20.290;2023-02-19T07:48:48;98355.75;;;6.87;83.14
34235;BME280;20500;49.856;20.290;2023-02-19T07:51:53;98356.84;;;6.87;83.37
34235;BME280;20500;49.856;20.290;2023-02-19T07:54:59;98366.69;;;6.89;83.41
34235;BME280;20500;49.856;20.290;2023-02-19T07:58:05;98372.93;;;6.93;83.41
34235;BME280;20500;49.856;20.290;2023-02-19T08:01:10;98376.21;;;6.94;83.37
34235;BME280;20500;49.856;20.290;2023-02-19T08:04:18;98379.91;;;6.95;83.45
34235;BME280;20500;49.856;20.290;2023-02-19T08:07:24;98379.80;;;6.94;83.46
34235;BME280;20500;49.856;20.290;2023-02-19T08:10:35;98375.97;;;6.96;83.49
34235;BME280;20500;49.856;20.290;2023-02-19T08:13:59;98377.05;;;6.98;83.48
34235;BME280;20500;49.856;20.290;2023-02-19T08:17:05;98373.59;;;7.00;83.54
34235;BME280;20500;49.856;20.290;2023-02-19T08:20:12;98371.81;;;7.03;83.61
34235;BME280;20500;49.856;20.290;2023-02-19T08:23:19;98365.75;;;7.05;83.75
34235;BME280;20500;49.856;20.290;2023-02-19T08:26:25;98361.04;;;7.10;83.83
34235;BME280;20500;49.856;20.290;2023-02-19T08:29:31;98359.23;;;7.15;83.70
34235;BME280;20500;49.856;20.290;2023-02-19T08:32:38;98361.85;;;7.18;83.66
34235;BME280;20500;49.856;20.290;2023-02-19T08:35:45;98365.98;;;7.23;83.75
34235;BME280;20500;49.856;20.290;2023-02-19T08:38:51;98368.30;;;7.28;83.83
34235;BME280;20500;49.856;20.290;2023-02-19T08:41:57;98369.25;;;7.30;83.81
34235;BME280;20500;49.856;20.290;2023-02-19T08:45:02;98365.16;;;7.27;83.71
34235;BME280;20500;49.856;20.290;2023-02-19T08:48:10;98360.09;;;7.26;83.73
34235;BME280;20500;49.856;20.290;2023-02-19T08:51:16;98358.52;;;7.22;83.59
34235;BME280;20500;49.856;20.290;2023-02-19T08:54:21;98358.29;;;7.19;83.77
34235;BME280;20500;49.856;20.290;2023-02-19T08:57:27;98357.75;;;7.22;84.07
34235;BME280;20500;49.856;20.290;2023-02-19T09:00:34;98353.81;;;7.27;84.15
34235;BME280;20500;49.856;20.290;2023-02-19T09:03:38;98349.08;;;7.32;84.13
34235;BME280;20500;49.856;20.290;2023-02-19T09:06:45;98348.19;;;7.38;84.15
34235;BME280;20500;49.856;20.290;2023-02-19T09:09:51;98353.23;;;7.43;84.31
34235;BME280;20500;49.856;20.290;2023-02-19T09:12:58;98351.33;;;7.47;84.15
34235;BME280;20500;49.856;20.290;2023-02-19T09:16:05;98344.49;;;7.50;84.07
34235;BME280;20500;49.856;20.290;2023-02-19T09:19:11;98342.21;;;7.50;84.16
34235;BME280;20500;49.856;20.290;2023-02-19T09:22:17;98342.84;;;7.48;83.98
34235;BME280;20500;49.856;20.290;2023-02-19T09:25:24;98344.55;;;7.46;83.98
34235;BME280;20500;49.856;20.290;2023-02-19T09:28:30;98343.48;;;7.44;83.97
34235;BME280;20500;49.856;20.290;2023-02-19T09:31:35;98344.13;;;7.39;83.71
34235;BME280;20500;49.856;20.290;2023-02-19T09:34:41;98350.64;;;7.36;83.75
34235;BME280;20500;49.856;20.290;2023-02-19T09:37:47;98346.05;;;7.30;83.58
34235;BME280;20500;49.856;20.290;2023-02-19T09:40:52;98341.23;;;7.25;83.63
34235;BME280;20500;49.856;20.290;2023-02-19T09:43:59;98341.25;;;7.23;83.74
34235;BME280;20500;49.856;20.290;2023-02-19T09:47:12;98339.44;;;7.22;83.68
34235;BME280;20500;49.856;20.290;2023-02-19T09:50:25;98338.52;;;7.22;83.69
34235;BME280;20500;49.856;20.290;2023-02-19T09:53:38;98344.76;;;7.21;83.75
34235;BME280;20500;49.856;20.290;2023-02-19T09:56:46;98351.45;;;7.19;83.56
34235;BME280;20500;49.856;20.290;2023-02-19T09:59:55;98357.86;;;7.17;83.63
34235;BME280;20500;49.856;20.290;2023-02-19T10:03:08;98362.27;;;7.15;83.72
34235;BME280;20500;49.856;20.290;2023-02-19T10:06:19;98365.98;;;7.13;83.75
34235;BME280;20500;49.856;20.290;2023-02-19T10:09:27;98364.98;;;7.08;83.68
34235;BME280;20500;49.856;20.290;2023-02-19T10:12:34;98369.48;;;7.08;83.87
34235;BME280;20500;49.856;20.290;2023-02-19T10:15:40;98369.05;;;7.07;83.75
34235;BME280;20500;49.856;20.290;2023-02-19T10:18:50;98371.85;;;7.02;83.71
34235;BME280;20500;49.856;20.290;2023-02-19T10:21:54;98376.30;;;6.98;83.79
34235;BME280;20500;49.856;20.290;2023-02-19T10:25:01;98367.90;;;6.93;83.81
34235;BME280;20500;49.856;20.290;2023-02-19T10:28:13;98371.29;;;6.90;83.81
34235;BME280;20500;49.856;20.290;2023-02-19T10:31:22;98374.89;;;6.88;83.93
34235;BME280;20500;49.856;20.290;2023-02-19T10:34:29;98376.61;;;6.89;84.02
34235;BME280;20500;49.856;20.290;2023-02-19T10:37:33;98375.66;;;6.88;84.09
34235;BME280;20500;49.856;20.290;2023-02-19T10:40:44;98377.35;;;6.90;84.05
34235;BME280;20500;49.856;20.290;2023-02-19T10:43:55;98378.83;;;6.90;84.05
34235;BME280;20500;49.856;20.290;2023-02-19T10:47:06;98378.50;;;6.92;84.17
34235;BME280;20500;49.856;20.290;2023-02-19T10:50:19;98376.89;;;6.95;84.07
34235;BME280;20500;49.856;20.290;2023-02-19T10:53:37;98385.08;;;6.95;84.06
34235;BME280;20500;49.856;20.290;2023-02-19T10:56:44;98389.67;;;6.93;84.01
34235;BME280;20500;49.856;20.290;2023-02-19T10:59:52;98390.50;;;6.92;84.14
34235;BME280;20500;49.856;20.290;2023-02-19T11:03:20;98388.42;;;6.93;84.16
34235;BME280;20500;49.856;20.290;2023-02-19T11:06:27;98395.51;;;6.93;84.01
34235;BME280;20500;49.856;20.290;2023-02-19T11:09:38;98394.70;;;6.90;83.92
34235;BME280;20500;49.856;20.290;2023-02-19T11:12:48;98403.34;;;6.87;84.06
34235;BME280;20500;49.856;20.290;2023-02-19T11:15:56;98414.60;;;6.85;84.00
34235;BME280;20500;49.856;20.290;2023-02-19T11:19:02;98415.73;;;6.79;83.95
34235;BME280;20500;49.856;20.290;2023-02-19T11:22:19;98418.49;;;6.73;83.69
34235;BME280;20500;49.856;20.290;2023-02-19T11:25:26;98422.13;;;6.65;83.79
34235;BME280;20500;49.856;20.290;2023-02-19T11:28:34;98435.98;;;6.57;83.62
34235;BME280;20500;49.856;20.290;2023-02-19T11:31:40;98456.19;;;6.34;82.92
34235;BME280;20500;49.856;20.290;2023-02-19T11:34:47;98447.50;;;5.95;82.77
34235;BME280;20500;49.856;20.290;2023-02-19T11:37:58;98460.65;;;5.67;83.07
34235;BME280;20500;49.856;20.290;2023-02-19T11:41:09;98470.69;;;5.49;83.10
34235;BME280;20500;49.856;20.290;2023-02-19T11:44:30;98477.08;;;5.33;83.13
34235;BME280;20500;49.856;20.290;2023-02-19T11:48:05;98482.37;;;5.20;83.10
34235;BME280;20500;49.856;20.290;2023-02-19T11:54:48;98489.44;;;4.94;83.18
34235;BME280;20500;49.856;20.290;2023-02-19T11:58:03;98496.67;;;4.85;83.14
34235;BME280;20500;49.856;20.290;2023-02-19T12:01:19;98500.61;;;4.75;82.93
34235;BME280;20500;49.856;20.290;2023-02-19T12:05:08;98503.11;;;4.59;82.80
34235;BME280;20500;49.856;20.290;2023-02-19T12:12:03;98522.30;;;4.32;83.00
34235;BME280;20500;49.856;20.290;2023-02-19T12:15:34;98530.58;;;4.26;83.04
34235;BME280;20500;49.856;20.290;2023-02-19T12:19:04;98529.92;;;4.24;83.23
34235;BME280;20500;49.856;20.290;2023-02-19T12:22:25;98539.27;;;4.27;83.47
34235;BME280;20500;49.856;20.290;2023-02-19T12:25:46;98548.14;;;4.28;83.22
34235;BME280;20500;49.856;20.290;2023-02-19T12:29:13;98554.19;;;4.27;83.22
34235;BME280;20500;49.856;20.290;2023-02-19T12:32:39;98560.20;;;4.26;83.18
34235;BME280;20500;49.856;20.290;2023-02-19T12:35:57;98564.08;;;4.25;83.30
34235;BME280;20500;49.856;20.290;2023-02-19T12:39:05;98567.61;;;4.24;83.28
34235;BME280;20500;49.856;20.290;2023-02-19T12:42:24;98568.79;;;4.22;83.26
34235;BME280;20500;49.856;20.290;2023-02-19T12:45:37;98570.73;;;4.20;83.21
34235;BME280;20500;49.856;20.290;2023-02-19T12:48:47;98581.60;;;4.17;83.16
34235;BME280;20500;49.856;20.290;2023-02-19T12:51:59;98589.27;;;4.16;83.25
34235;BME280;20500;49.856;20.290;2023-02-19T12:55:15;98593.20;;;4.14;83.37
34235;BME280;20500;49.856;20.290;2023-02-19T12:58:29;98598.86;;;4.15;83.38
34235;BME280;20500;49.856;20.290;2023-02-19T13:01:42;98596.09;;;4.16;83.37
34235;BME280;20500;49.856;20.290;2023-02-19T13:04:57;98595.30;;;4.19;83.42
34235;BME280;20500;49.856;20.290;2023-02-19T13:08:09;98593.09;;;4.21;83.35
34235;BME280;20500;49.856;20.290;2023-02-19T13:11:21;98592.70;;;4.21;83.31
34235;BME280;20500;49.856;20.290;2023-02-19T13:14:31;98595.69;;;4.27;83.54
34235;BME280;20500;49.856;20.290;2023-02-19T13:17:42;98601.86;;;4.35;83.57
34235;BME280;20500;49.856;20.290;2023-02-19T13:20:51;98604.30;;;4.44;83.71
34235;BME280;20500;49.856;20.290;2023-02-19T13:24:00;98600.34;;;4.47;83.65
34235;BME280;20500;49.856;20.290;2023-02-19T13:27:22;98600.11;;;4.51;83.59
34235;BME280;20500;49.856;20.290;2023-02-19T13:30:55;98608.46;;;4.51;83.44
34235;BME280;20500;49.856;20.290;2023-02-19T13:34:14;98614.87;;;4.51;83.61
34235;BME280;20500;49.856;20.290;2023-02-19T13:37:23;98622.83;;;4.59;83.82
34235;BME280;20500;49.856;20.290;2023-02-19T13:40:32;98628.48;;;4.67;83.72
34235;BME280;20500;49.856;20.290;2023-02-19T13:43:39;98636.66;;;4.73;83.72
34235;BME280;20500;49.856;20.290;2023-02-19T13:46:47;98642.67;;;4.76;83.72
34235;BME280;20500;49.856;20.290;2023-02-19T13:50:05;98645.55;;;4.80;83.65
34235;BME280;20500;49.856;20.290;2023-02-19T13:53:55;98641.90;;;4.84;83.61
34235;BME280;20500;49.856;20.290;2023-02-19T13:57:23;98645.55;;;4.88;83.79
34235;BME280;20500;49.856;20.290;2023-02-19T14:00:58;98649.15;;;4.92;83.83
34235;BME280;20500;49.856;20.290;2023-02-19T14:04:16;98653.25;;;4.95;83.69
34235;BME280;20500;49.856;20.290;2023-02-19T14:07:46;98656.08;;;4.98;83.76
34235;BME280;20500;49.856;20.290;2023-02-19T14:10:55;98663.85;;;5.03;83.80
34235;BME280;20500;49.856;20.290;2023-02-19T14:14:27;98664.40;;;5.05;83.72
34235;BME280;20500;49.856;20.290;2023-02-19T14:17:40;98669.59;;;5.02;83.66
34235;BME280;20500;49.856;20.290;2023-02-19T14:20:47;98677.92;;;4.99;83.61
34235;BME280;20500;49.856;20.290;2023-02-19T14:23:52;98679.90;;;4.92;83.36
34235;BME280;20500;49.856;20.290;2023-02-19T14:27:01;98684.39;;;4.83;83.22
34235;BME280;20500;49.856;20.290;2023-02-19T14:30:11;98686.44;;;4.74;83.19
34235;BME280;20500;49.856;20.290;2023-02-19T14:33:20;98694.65;;;4.65;83.06
34235;BME280;20500;49.856;20.290;2023-02-19T14:36:39;98701.95;;;4.59;83.02
34235;BME280;20500;49.856;20.290;2023-02-19T14:39:49;98709.29;;;4.52;83.03
34235;BME280;20500;49.856;20.290;2023-02-19T14:42:58;98718.34;;;4.48;83.01
34235;BME280;20500;49.856;20.290;2023-02-19T14:46:14;98732.17;;;4.44;82.96
34235;BME280;20500;49.856;20.290;2023-02-19T14:49:26;98745.05;;;4.39;82.82
34235;BME280;20500;49.856;20.290;2023-02-19T14:52:36;98751.27;;;4.34;82.78
34235;BME280;20500;49.856;20.290;2023-02-19T14:55:47;98756.25;;;4.31;82.54
34235;BME280;20500;49.856;20.290;2023-02-19T14:59:23;98758.75;;;4.26;82.46
34235;BME280;20500;49.856;20.290;2023-02-19T15:02:31;98759.55;;;4.25;82.67
34235;BME280;20500;49.856;20.290;2023-02-19T15:05:37;98767.12;;;4.23;82.55
34235;BME280;20500;49.856;20.290;2023-02-19T15:08:46;98780.59;;;4.19;82.40
34235;BME280;20500;49.856;20.290;2023-02-19T15:11:54;98787.86;;;4.17;82.32
34235;BME280;20500;49.856;20.290;2023-02-19T15:15:02;98793.17;;;4.13;82.30
34235;BME280;20500;49.856;20.290;2023-02-19T15:18:18;98797.20;;;4.13;82.39
34235;BME280;20500;49.856;20.290;2023-02-19T15:21:27;98805.28;;;4.11;82.25
34235;BME280;20500;49.856;20.290;2023-02-19T15:24:34;98816.79;;;4.09;82.29
34235;BME280;20500;49.856;20.290;2023-02-19T15:27:39;98819.16;;;4.12;82.29
34235;BME280;20500;49.856;20.290;2023-02-19T15:30:45;98825.98;;;4.14;82.19
34235;BME280;20500;49.856;20.290;2023-02-19T15:33:52;98829.45;;;4.12;82.13
34235;BME280;20500;49.856;20.290;2023-02-19T15:36:59;98837.31;;;4.08;82.08
34235;BME280;20500;49.856;20.290;2023-02-19T15:40:11;98843.38;;;4.07;82.07
34235;BME280;20500;49.856;20.290;2023-02-19T15:43:22;98844.48;;;4.05;81.89
34235;BME280;20500;49.856;20.290;2023-02-19T15:46:30;98850.09;;;4.03;81.86
34235;BME280;20500;49.856;20.290;2023-02-19T15:49:41;98852.48;;;4.02;81.79
34235;BME280;20500;49.856;20.290;2023-02-19T15:52:52;98859.45;;;4.01;81.70
34235;BME280;20500;49.856;20.290;2023-02-19T15:56:08;98872.70;;;3.93;81.57
34235;BME280;20500;49.856;20.290;2023-02-19T15:59:22;98877.14;;;3.90;81.53
34235;BME280;20500;49.856;20.290;2023-02-19T16:02:32;98882.23;;;3.87;81.53
34235;BME280;20500;49.856;20.290;2023-02-19T16:05:39;98885.73;;;3.82;81.45
34235;BME280;20500;49.856;20.290;2023-02-19T16:08:57;98891.77;;;3.77;81.40
34235;BME280;20500;49.856;20.290;2023-02-19T16:12:20;98894.87;;;3.75;81.45
34235;BME280;20500;49.856;20.290;2023-02-19T16:15:28;98903.60;;;3.74;81.39
34235;BME280;20500;49.856;20.290;2023-02-19T16:18:35;98905.52;;;3.73;81.41
34235;BME280;20500;49.856;20.290;2023-02-19T16:21:44;98910.16;;;3.71;81.38
34235;BME280;20500;49.856;20.290;2023-02-19T16:24:52;98919.14;;;3.67;81.19
34235;BME280;20500;49.856;20.290;2023-02-19T16:28:07;98920.89;;;3.63;81.19
34235;BME280;20500;49.856;20.290;2023-02-19T16:31:14;98928.20;;;3.64;81.09
34235;BME280;20500;49.856;20.290;2023-02-19T16:34:24;98936.43;;;3.62;81.09
34235;BME280;20500;49.856;20.290;2023-02-19T16:37:36;98949.10;;;3.61;81.13
34235;BME280;20500;49.856;20.290;2023-02-19T16:41:13;98959.40;;;3.58;81.08
34235;BME280;20500;49.856;20.290;2023-02-19T16:44:34;98968.64;;;3.57;81.04
34235;BME280;20500;49.856;20.290;2023-02-19T16:47:41;98979.13;;;3.56;80.80
34235;BME280;20500;49.856;20.290;2023-02-19T16:50:52;98984.96;;;3.54;80.77
34235;BME280;20500;49.856;20.290;2023-02-19T16:53:58;98984.95;;;3.52;80.71
34235;BME280;20500;49.856;20.290;2023-02-19T16:57:04;98987.60;;;3.52;80.83